Terminal Aerodrome Forecast
Issued by NWS

Home | Current Version | Previous Version | Text Only | Print | Product List | Glossary On
Versions: 1 2 3 4 5 6 7 8 9 10 11 12 13 14 15 16 17 18 19
000
FTUS41 KCLE 261700
TAFFDY
TAF
KFDY 261736Z 2618/2718 01004KT P6SM OVC025
     FM262300 35006KT P6SM OVC025
     FM271000 32008KT P6SM OVC025=

USA.gov is the U.S. government's official web portal to all federal, state and local government web resources and services.